Time;durP1;ratioP1;P1;durP2;ratioP2;P2;SDS_P1;SDS_P2;PMS_P1;PMS_P2;Temp;Humidity;BMP_temperature;BMP_pressure;BME280_temperature;BME280_humidity;BME280_pressure;Samples;Min_cycle;Max_cycle;Signal;HPM_P1;HPM_P2
2021/07/16 00:03:43;;;;;;;8.67;6.10;;;;;;;21.84;68.63;99255.52;530527;1090;116495;-58
2021/07/16 00:14:07;;;;;;;10.33;7.50;;;;;;;21.77;68.89;99246.58;531161;1089;116277;-58
2021/07/16 00:24:13;;;;;;;10.40;8.83;;;;;;;21.55;68.96;99233.03;530426;1089;118339;-58
2021/07/16 00:34:21;;;;;;;8.50;6.07;;;;;;;21.36;69.39;99257.53;531456;1089;116055;-58
2021/07/16 00:44:28;;;;;;;8.65;6.53;;;;;;;21.25;69.68;99272.13;531369;1089;117729;-56
2021/07/16 00:54:35;;;;;;;9.80;6.53;;;;;;;21.26;70.37;99266.59;520573;1089;116777;-57
2021/07/16 01:04:42;;;;;;;9.30;7.67;;;;;;;21.08;70.57;99264.19;526656;1088;116431;-57
2021/07/16 01:14:49;;;;;;;10.07;7.90;;;;;;;20.90;71.13;99266.30;519943;1090;116374;-58
2021/07/16 01:24:56;;;;;;;9.07;7.77;;;;;;;20.95;71.70;99263.93;531295;1089;116016;-58
2021/07/16 01:35:03;;;;;;;13.77;9.13;;;;;;;21.03;72.31;99233.70;531357;1089;116205;-58
2021/07/16 01:45:12;;;;;;;11.20;8.63;;;;;;;20.92;72.45;99200.24;530544;1090;117432;-58
2021/07/16 01:55:21;;;;;;;12.97;7.90;;;;;;;20.91;73.52;99238.61;531309;1089;116952;-58
2021/07/16 02:05:28;;;;;;;9.77;8.77;;;;;;;20.88;73.78;99293.14;531334;1090;116400;-59
2021/07/16 02:15:37;;;;;;;8.15;7.18;;;;;;;20.81;73.87;99297.47;530568;1090;115541;-58
2021/07/16 02:25:45;;;;;;;9.43;7.90;;;;;;;20.89;74.20;99269.95;531330;1088;116714;-58
2021/07/16 02:35:52;;;;;;;12.97;8.47;;;;;;;20.71;74.29;99269.15;531224;1089;116707;-62
2021/07/16 02:45:58;;;;;;;10.77;8.83;;;;;;;20.67;74.90;99245.69;531194;1089;116049;-57
2021/07/16 02:56:04;;;;;;;13.77;8.77;;;;;;;20.74;75.27;99265.31;531266;1090;116401;-58
2021/07/16 03:06:11;;;;;;;11.13;8.80;;;;;;;20.63;75.46;99273.69;530491;1090;116105;-58
2021/07/16 03:16:18;;;;;;;10.57;7.93;;;;;;;20.58;75.45;99269.71;521497;1089;116516;-58
2021/07/16 03:26:24;;;;;;;10.93;8.87;;;;;;;20.51;75.80;99252.72;525935;1088;116650;-58
2021/07/16 03:36:31;;;;;;;19.77;9.37;;;;;;;20.42;76.51;99230.59;530472;1090;116007;-59
2021/07/16 03:46:37;;;;;;;12.43;7.15;;;;;;;20.38;75.73;99210.62;531261;1090;117223;-58
2021/07/16 03:56:44;;;;;;;12.17;7.17;;;;;;;20.40;75.79;99219.27;531239;1089;117143;-59
2021/07/16 04:06:53;;;;;;;11.33;9.00;;;;;;;20.36;75.87;99231.27;530386;1089;116559;-59
2021/07/16 04:16:59;;;;;;;9.20;7.77;;;;;;;20.74;76.47;99209.30;531397;1090;115870;-59
2021/07/16 04:27:09;;;;;;;8.13;6.90;;;;;;;24.35;74.46;99209.94;525527;1089;116462;-59
2021/07/16 04:37:16;;;;;;;10.37;8.23;;;;;;;27.52;65.90;99192.70;530547;1088;117319;-59
2021/07/16 04:47:22;;;;;;;11.95;7.75;;;;;;;27.27;62.99;99194.34;513365;1089;116398;-58
2021/07/16 04:57:29;;;;;;;11.93;5.83;;;;;;;26.61;61.70;99225.10;518927;1090;117529;-58
2021/07/16 05:07:35;;;;;;;6.83;6.13;;;;;;;25.88;61.69;99251.92;531461;1089;116196;-59
2021/07/16 05:17:42;;;;;;;10.00;4.13;;;;;;;25.29;61.99;99289.24;531508;1088;116586;-58
2021/07/16 05:27:48;;;;;;;5.37;3.93;;;;;;;26.20;60.05;99308.64;530568;1088;116655;-59
2021/07/16 05:37:55;;;;;;;3.65;3.35;;;;;;;25.37;60.50;99325.84;531189;1089;116769;-59
2021/07/16 05:48:03;;;;;;;7.33;3.77;;;;;;;25.24;61.11;99329.33;530550;1089;116860;-58
2021/07/16 05:58:10;;;;;;;5.95;3.75;;;;;;;25.96;60.91;99343.16;531239;1089;116770;-58
2021/07/16 06:08:15;;;;;;;;;;;;;;;30.79;56.66;99344.84;531302;1089;117206;-58
2021/07/16 06:18:22;;;;;;;4.45;2.83;;;;;;;30.61;52.52;99352.84;530844;1089;102982;-59
2021/07/16 06:28:29;;;;;;;3.30;3.00;;;;;;;29.20;52.31;99353.08;531082;1089;166842;-62
2021/07/16 06:38:36;;;;;;;7.98;3.50;;;;;;;28.70;52.49;99332.42;531221;1089;116274;-62
2021/07/16 06:48:43;;;;;;;6.13;3.43;;;;;;;28.23;52.74;99336.41;530720;1089;116277;-63
2021/07/16 06:58:51;;;;;;;;;;;;;;;27.13;53.18;99352.57;531807;1088;115979;-63
2021/07/16 07:08:58;;;;;;;6.37;3.43;;;;;;;26.20;54.82;99365.14;531366;1090;102074;-63
2021/07/16 07:19:04;;;;;;;4.70;2.87;;;;;;;26.02;55.66;99352.27;530557;1090;116737;-63
2021/07/16 07:29:11;;;;;;;5.35;3.68;;;;;;;25.77;56.05;99362.78;517685;1090;118111;-60
2021/07/16 07:39:18;;;;;;;7.23;3.20;;;;;;;26.05;56.17;99361.80;519179;1088;116980;-61
2021/07/16 07:49:28;;;;;;;8.97;3.80;;;;;;;26.55;55.71;99351.45;531851;1089;116444;-62
2021/07/16 07:59:34;;;;;;;8.93;4.03;;;;;;;27.56;54.51;99347.64;531892;1089;115589;-63
2021/07/16 08:09:40;;;;;;;6.37;3.63;;;;;;;29.26;52.70;99336.98;531153;1088;116490;-60
2021/07/16 08:19:47;;;;;;;7.78;4.20;;;;;;;30.03;50.24;99352.55;531768;1088;116851;-59
2021/07/16 08:29:53;;;;;;;8.03;3.73;;;;;;;31.20;48.64;99353.80;530317;1089;117637;-60
2021/07/16 08:40:00;;;;;;;3.83;3.40;;;;;;;31.23;47.50;99368.80;531780;1089;116564;-61
2021/07/16 08:50:10;;;;;;;5.33;4.45;;;;;;;30.98;46.73;99381.55;526167;1089;116182;-64
2021/07/16 09:00:18;;;;;;;5.60;3.70;;;;;;;31.45;45.67;99382.50;531039;1090;116966;-61
2021/07/16 09:10:27;;;;;;;13.40;5.45;;;;;;;31.67;45.83;99379.95;531802;1089;116273;-60
2021/07/16 09:20:34;;;;;;;8.67;4.60;;;;;;;32.00;44.91;99372.95;531741;1089;116284;-63
2021/07/16 09:30:41;;;;;;;5.30;3.97;;;;;;;32.44;45.30;99379.65;531105;1089;115800;-61
2021/07/16 09:40:52;;;;;;;6.65;3.85;;;;;;;32.28;44.63;99370.41;531839;1089;115809;-61
2021/07/16 09:51:16;;;;;;;7.30;3.90;;;;;;;32.26;44.17;99373.36;531034;1088;116237;-63
2021/07/16 10:01:22;;;;;;;4.05;3.50;;;;;;;32.59;43.06;99372.78;531787;1089;116282;-63
2021/07/16 10:11:32;;;;;;;7.43;4.07;;;;;;;31.93;42.48;99369.56;531813;1089;116854;-61
2021/07/16 10:21:40;;;;;;;9.47;5.30;;;;;;;31.98;42.49;99374.27;530355;1089;117046;-61
2021/07/16 10:31:47;;;;;;;7.60;4.87;;;;;;;31.38;43.18;99360.95;531804;1090;116437;-61
2021/07/16 10:41:54;;;;;;;6.60;3.80;;;;;;;31.96;42.50;99368.27;530311;1089;115950;-59
2021/07/16 10:52:06;;;;;;;6.85;4.75;;;;;;;31.62;42.24;99379.03;531754;1088;117453;-61
2021/07/16 11:02:48;;;;;;;6.93;4.67;;;;;;;31.32;41.98;99367.36;531701;1089;115900;-60
2021/07/16 11:12:55;;;;;;;8.60;5.60;;;;;;;30.98;42.95;99364.48;531725;1089;116112;-62
2021/07/16 11:23:07;;;;;;;7.30;5.18;;;;;;;29.85;44.51;99366.99;531611;1089;117262;-72
2021/07/16 11:33:14;;;;;;;7.73;4.83;;;;;;;29.39;46.66;99376.55;526439;1089;116948;-61
2021/07/16 11:43:20;;;;;;;10.18;4.50;;;;;;;29.58;46.95;99386.29;531370;1088;116355;-63
2021/07/16 11:53:28;;;;;;;6.50;5.63;;;;;;;28.98;47.87;99389.73;531806;1089;116652;-63
2021/07/16 12:03:34;;;;;;;10.10;5.77;;;;;;;29.08;47.76;99387.30;524500;1090;116066;-65
2021/07/16 12:13:41;;;;;;;8.58;5.30;;;;;;;28.77;48.82;99411.49;526667;1089;116309;-66
2021/07/16 12:23:51;;;;;;;6.57;4.37;;;;;;;28.59;49.41;99412.28;531785;1090;116262;-72
2021/07/16 12:33:58;;;;;;;7.20;4.80;;;;;;;28.65;49.57;99400.61;531735;1088;116749;-70
2021/07/16 12:44:11;;;;;;;;;;;;;;;28.34;50.33;99409.59;531173;1089;116788;-66
2021/07/16 12:54:23;;;;;;;5.87;4.37;;;;;;;28.20;49.80;99419.68;527678;1089;102998;-69
2021/07/16 13:04:31;;;;;;;6.10;4.87;;;;;;;28.03;50.31;99412.06;521905;1090;116300;-67
2021/07/16 13:14:40;;;;;;;6.70;4.90;;;;;;;27.87;50.27;99388.32;529705;1089;115746;-71
2021/07/16 13:24:48;;;;;;;7.00;4.75;;;;;;;27.82;50.28;99379.02;531084;1090;116801;-70
2021/07/16 13:34:55;;;;;;;7.27;5.33;;;;;;;27.60;50.63;99366.91;520186;1089;116153;-70
2021/07/16 13:45:02;;;;;;;10.45;5.08;;;;;;;27.65;50.56;99350.90;529535;1089;115984;-68
2021/07/16 13:55:11;;;;;;;10.70;4.73;;;;;;;27.37;49.77;99352.07;531863;1090;116842;-66
2021/07/16 14:05:19;;;;;;;5.53;3.90;;;;;;;27.40;49.92;99349.75;531779;1089;116817;-71
2021/07/16 14:15:25;;;;;;;5.48;4.45;;;;;;;27.40;49.44;99355.13;530334;1089;116590;-59
2021/07/16 14:25:31;;;;;;;6.17;3.90;;;;;;;27.24;49.44;99355.64;531792;1089;115977;-62
2021/07/16 14:35:38;;;;;;;8.80;5.40;;;;;;;27.30;49.42;99349.41;531141;1089;117828;-60
2021/07/16 14:45:44;;;;;;;5.08;3.98;;;;;;;27.25;49.35;99357.30;530571;1088;116692;-61
2021/07/16 14:55:51;;;;;;;5.73;4.77;;;;;;;27.21;48.91;99348.80;531300;1089;116045;-60
2021/07/16 15:05:57;;;;;;;7.73;3.80;;;;;;;27.10;48.39;99346.77;530491;1089;116460;-60
2021/07/16 15:16:05;;;;;;;5.50;4.00;;;;;;;27.34;48.48;99339.84;531198;1088;117745;-60
2021/07/16 15:26:12;;;;;;;14.03;4.40;;;;;;;27.62;47.73;99333.27;531185;1089;116108;-60
2021/07/16 15:36:18;;;;;;;9.03;4.70;;;;;;;27.57;47.68;99324.19;530481;1089;117046;-61
2021/07/16 15:46:25;;;;;;;8.60;4.00;;;;;;;27.20;47.40;99317.51;531205;1090;117620;-61
2021/07/16 15:56:31;;;;;;;6.80;3.77;;;;;;;26.88;47.49;99317.42;531278;1089;116366;-61
2021/07/16 16:06:38;;;;;;;4.87;4.20;;;;;;;26.71;47.17;99330.49;530505;1089;116460;-61
2021/07/16 16:16:45;;;;;;;8.77;5.80;;;;;;;26.60;47.86;99333.83;531178;1090;116119;-60
2021/07/16 16:26:54;;;;;;;8.60;4.47;;;;;;;26.36;48.35;99330.76;530721;1090;116681;-58
2021/07/16 16:37:01;;;;;;;5.65;2.93;;;;;;;26.23;48.89;99342.38;531172;1090;177999;-61
2021/07/16 16:47:07;;;;;;;6.77;4.53;;;;;;;26.10;49.30;99348.55;531293;1089;116076;-60
2021/07/16 16:57:13;;;;;;;5.97;3.67;;;;;;;26.02;49.95;99350.39;530559;1089;116073;-60
2021/07/16 17:07:20;;;;;;;4.27;3.37;;;;;;;25.78;50.48;99353.67;531216;1089;116365;-61
2021/07/16 17:17:26;;;;;;;8.73;4.13;;;;;;;25.71;50.80;99369.80;531303;1089;116550;-61
2021/07/16 17:27:33;;;;;;;8.63;3.80;;;;;;;25.54;51.15;99380.94;530552;1089;117051;-60
2021/07/16 17:37:40;;;;;;;7.50;3.53;;;;;;;25.31;51.28;99384.74;531258;1090;116323;-66
2021/07/16 17:47:47;;;;;;;5.25;3.70;;;;;;;25.07;52.46;99386.06;525051;1089;117343;-60
2021/07/16 17:57:54;;;;;;;4.53;3.30;;;;;;;24.87;53.28;99381.40;531681;1088;115867;-60
2021/07/16 18:08:01;;;;;;;18.17;5.43;;;;;;;24.60;53.40;99391.13;531812;1088;116762;-61
2021/07/16 18:18:09;;;;;;;6.73;3.10;;;;;;;24.42;53.93;99402.34;530431;1088;116534;-61
2021/07/16 18:28:22;;;;;;;7.37;3.97;;;;;;;24.23;53.75;99412.70;531824;1089;116413;-62
2021/07/16 18:38:28;;;;;;;5.53;3.47;;;;;;;23.84;54.75;99425.48;531810;1089;115897;-60
2021/07/16 18:48:34;;;;;;;5.87;4.07;;;;;;;23.56;55.93;99433.40;527498;1089;116552;-60
2021/07/16 18:58:41;;;;;;;6.20;3.83;;;;;;;23.30;56.39;99440.90;531796;1089;116046;-62
2021/07/16 19:08:48;;;;;;;6.97;4.03;;;;;;;23.07;57.48;99438.30;531779;1090;116879;-61
2021/07/16 19:18:54;;;;;;;10.63;4.50;;;;;;;22.87;58.36;99441.50;531121;1089;115973;-62
2021/07/16 19:29:01;;;;;;;11.93;5.70;;;;;;;22.75;59.07;99446.48;531720;1089;116241;-62
2021/07/16 19:39:07;;;;;;;7.97;5.20;;;;;;;22.57;59.62;99444.14;530987;1088;176858;-63
2021/07/16 19:49:14;;;;;;;10.20;6.23;;;;;;;22.41;60.64;99439.72;531747;1089;117009;-63
2021/07/16 19:59:20;;;;;;;9.10;6.00;;;;;;;22.43;61.09;99442.19;513853;1089;10001808;-64
2021/07/16 20:09:27;;;;;;;11.10;7.57;;;;;;;22.36;61.77;99432.23;530842;1089;117957;-65
2021/07/16 20:19:33;;;;;;;10.43;7.27;;;;;;;22.19;62.49;99442.22;531622;1089;116687;-63
2021/07/16 20:29:40;;;;;;;7.10;5.17;;;;;;;22.02;63.06;99438.82;531647;1090;116554;-63
2021/07/16 20:39:49;;;;;;;9.27;5.70;;;;;;;22.00;63.47;99431.98;530993;1089;116555;-63
2021/07/16 20:49:56;;;;;;;8.50;5.20;;;;;;;22.01;63.99;99439.83;531463;1089;116991;-61
2021/07/16 21:00:03;;;;;;;6.70;6.00;;;;;;;21.95;64.39;99457.41;530986;1089;117293;-61
2021/07/16 21:10:13;;;;;;;7.57;5.87;;;;;;;21.86;64.94;99465.63;531607;1089;116977;-61
2021/07/16 21:20:20;;;;;;;11.80;6.60;;;;;;;21.86;65.11;99474.49;531754;1088;115947;-60
2021/07/16 21:30:27;;;;;;;6.43;5.70;;;;;;;21.82;65.69;99486.55;530904;1088;116569;-61
2021/07/16 21:40:35;;;;;;;12.55;8.00;;;;;;;21.62;66.27;99472.72;531639;1089;116784;-61
2021/07/16 21:50:42;;;;;;;10.23;7.20;;;;;;;21.38;66.69;99479.83;531710;1090;117261;-61
2021/07/16 22:00:48;;;;;;;10.07;8.13;;;;;;;21.18;67.73;99480.23;530827;1088;116883;-63
2021/07/16 22:10:55;;;;;;;10.30;8.03;;;;;;;21.11;68.36;99472.05;531567;1089;116550;-60
2021/07/16 22:21:01;;;;;;;14.30;9.47;;;;;;;21.19;68.58;99487.23;530334;1090;116697;-61
2021/07/16 22:31:11;;;;;;;16.03;11.57;;;;;;;21.38;68.78;99474.48;531683;1089;117753;-61
2021/07/16 22:41:17;;;;;;;8.73;7.37;;;;;;;21.28;69.01;99458.67;531681;1089;117749;-61
2021/07/16 22:51:24;;;;;;;11.23;7.80;;;;;;;21.14;69.41;99431.69;530947;1089;116124;-61
2021/07/16 23:01:30;;;;;;;11.00;6.33;;;;;;;21.17;69.54;99435.01;531627;1089;116573;-61
2021/07/16 23:11:37;;;;;;;8.23;6.93;;;;;;;20.94;70.08;99433.88;531223;1089;115663;-62
2021/07/16 23:21:44;;;;;;;8.87;7.77;;;;;;;20.82;70.11;99435.23;530735;1088;116325;-62
2021/07/16 23:31:51;;;;;;;9.10;7.73;;;;;;;20.65;70.30;99445.91;531569;1088;116678;-61
2021/07/16 23:41:57;;;;;;;11.70;8.47;;;;;;;20.50;70.80;99429.73;530877;1089;116715;-62
2021/07/16 23:52:06;;;;;;;12.23;7.88;;;;;;;20.19;71.74;99422.38;531651;1088;116368;-62
